Time,TemperatureF,DewpointF,PressureIn,WindDirection,WindDirectionDegrees,WindSpeedMPH,WindSpeedGustMPH,Humidity,HourlyPrecipIn,Conditions,Clouds,dailyrainin,SoftwareType,DateUTC
2013-05-24 00:02:00,58.0,57.0,30.12,ENE,71,0.0,0.0,96,0.00,,,0.00,,2013-05-24 05:02:00,
2013-05-24 00:12:00,58.0,57.0,30.12,ENE,71,0.0,0.0,96,0.00,,,0.00,,2013-05-24 05:12:00,
2013-05-24 00:22:00,58.0,57.0,30.13,ENE,71,0.0,0.0,96,0.00,,,0.00,,2013-05-24 05:22:00,
2013-05-24 00:32:00,57.0,56.0,30.14,ENE,71,0.0,0.0,96,0.00,,,0.00,,2013-05-24 05:32:00,
2013-05-24 00:42:00,57.0,56.0,30.14,ENE,71,0.0,0.0,96,0.00,,,0.00,,2013-05-24 05:42:00,
2013-05-24 00:52:00,57.0,56.0,30.14,ENE,71,0.0,2.0,96,0.00,,,0.00,,2013-05-24 05:52:00,
2013-05-24 01:02:00,59.0,57.0,30.15,East,92,1.0,4.0,93,0.00,,,0.00,,2013-05-24 06:02:00,
2013-05-24 01:12:00,59.0,57.0,30.15,East,92,1.0,4.0,93,0.00,,,0.00,,2013-05-24 06:12:00,
2013-05-24 01:21:00,60.0,57.0,30.14,East,96,0.0,3.0,89,0.00,,,0.00,,2013-05-24 06:21:00,
2013-05-24 01:32:00,60.0,56.0,30.15,East,90,1.0,5.0,88,0.00,,,0.00,,2013-05-24 06:32:00,
2013-05-24 01:41:00,60.0,56.0,30.15,East,90,1.0,5.0,88,0.00,,,0.00,,2013-05-24 06:41:00,
2013-05-24 01:52:00,60.0,56.0,30.14,ENE,61,1.0,5.0,88,0.00,,,0.00,,2013-05-24 06:52:00,
2013-05-24 02:01:00,60.0,56.0,30.14,ENE,70,3.0,7.0,87,0.00,,,0.00,,2013-05-24 07:01:00,
2013-05-24 02:11:00,60.0,56.0,30.14,ENE,70,3.0,7.0,87,0.00,,,0.00,,2013-05-24 07:11:00,
2013-05-24 02:22:00,60.0,56.0,30.14,ENE,75,0.0,5.0,87,0.00,,,0.00,,2013-05-24 07:22:00,
2013-05-24 02:31:00,59.0,55.0,30.15,ENE,75,1.0,5.0,87,0.00,,,0.00,,2013-05-24 07:31:00,
2013-05-24 02:42:00,59.0,55.0,30.15,ENE,75,1.0,5.0,87,0.00,,,0.00,,2013-05-24 07:42:00,
2013-05-24 02:52:00,59.0,55.0,30.14,ENE,63,1.0,4.0,88,0.00,,,0.00,,2013-05-24 07:52:00,
2013-05-24 03:02:00,59.0,55.0,30.14,ESE,115,1.0,6.0,88,0.00,,,0.00,,2013-05-24 08:02:00,
2013-05-24 03:11:00,59.0,55.0,30.14,ESE,115,1.0,6.0,88,0.00,,,0.00,,2013-05-24 08:11:00,
2013-05-24 03:22:00,58.0,54.0,30.14,ENE,69,1.0,5.0,88,0.00,,,0.00,,2013-05-24 08:22:00,
2013-05-24 03:32:00,58.0,54.0,30.15,ENE,68,0.0,6.0,88,0.00,,,0.00,,2013-05-24 08:32:00,
2013-05-24 03:42:00,58.0,54.0,30.15,ENE,68,0.0,6.0,88,0.00,,,0.00,,2013-05-24 08:42:00,
2013-05-24 03:52:00,58.0,54.0,30.15,ENE,63,1.0,7.0,88,0.00,,,0.00,,2013-05-24 08:52:00,
2013-05-24 04:02:00,58.0,54.0,30.15,NE,47,0.0,6.0,88,0.00,,,0.00,,2013-05-24 09:02:00,
2013-05-24 04:11:00,58.0,54.0,30.15,NE,47,0.0,6.0,88,0.00,,,0.00,,2013-05-24 09:11:00,
2013-05-24 04:21:00,58.0,54.0,30.15,East,99,0.0,4.0,88,0.00,,,0.00,,2013-05-24 09:21:00,
2013-05-24 04:32:00,58.0,54.0,30.16,East,90,1.0,3.0,88,0.00,,,0.00,,2013-05-24 09:32:00,
2013-05-24 04:42:00,58.0,54.0,30.16,East,90,1.0,3.0,88,0.00,,,0.00,,2013-05-24 09:42:00,
2013-05-24 04:53:00,57.0,54.0,30.16,East,95,0.0,2.0,89,0.00,,,0.00,,2013-05-24 09:53:00,
2013-05-24 05:02:00,57.0,54.0,30.17,East,88,1.0,4.0,89,0.00,,,0.00,,2013-05-24 10:02:00,
2013-05-24 05:12:00,57.0,54.0,30.17,East,88,1.0,4.0,89,0.00,,,0.00,,2013-05-24 10:12:00,
2013-05-24 05:22:00,57.0,54.0,30.17,East,92,2.0,7.0,89,0.00,,,0.00,,2013-05-24 10:22:00,
2013-05-24 05:32:00,57.0,54.0,30.18,ENE,63,1.0,5.0,89,0.00,,,0.00,,2013-05-24 10:32:00,
2013-05-24 05:42:00,57.0,54.0,30.18,ENE,63,1.0,5.0,89,0.00,,,0.00,,2013-05-24 10:42:00,
2013-05-24 05:52:00,57.0,54.0,30.19,East,90,1.0,5.0,89,0.00,,,0.00,,2013-05-24 10:52:00,
2013-05-24 06:02:00,57.0,54.0,30.21,ENE,73,0.0,4.0,90,0.00,,,0.00,,2013-05-24 11:02:00,
2013-05-24 06:12:00,57.0,54.0,30.21,ENE,73,0.0,4.0,90,0.00,,,0.00,,2013-05-24 11:12:00,
2013-05-24 06:22:00,56.0,53.0,30.21,ENE,63,1.0,6.0,90,0.00,,,0.00,,2013-05-24 11:22:00,
2013-05-24 06:32:00,56.0,53.0,30.21,NE,48,1.0,5.0,90,0.00,,,0.00,,2013-05-24 11:32:00,
2013-05-24 06:42:00,56.0,53.0,30.21,NE,48,1.0,5.0,90,0.00,,,0.00,,2013-05-24 11:42:00,
2013-05-24 06:52:00,56.0,53.0,30.21,ENE,72,1.0,5.0,90,0.00,,,0.00,,2013-05-24 11:52:00,
2013-05-24 07:02:00,56.0,53.0,30.21,ENE,76,1.0,6.0,90,0.00,,,0.00,,2013-05-24 12:02:00,
2013-05-24 07:11:00,56.0,53.0,30.21,ENE,76,1.0,6.0,90,0.00,,,0.00,,2013-05-24 12:11:00,
2013-05-24 07:21:00,56.0,53.0,30.21,East,93,1.0,6.0,91,0.00,,,0.00,,2013-05-24 12:21:00,
2013-05-24 07:32:00,57.0,54.0,30.22,East,85,2.0,6.0,90,0.00,,,0.00,,2013-05-24 12:32:00,
2013-05-24 07:42:00,57.0,54.0,30.22,East,85,2.0,6.0,90,0.00,,,0.00,,2013-05-24 12:42:00,
2013-05-24 07:52:00,57.0,54.0,30.21,ENE,63,1.0,6.0,90,0.00,,,0.00,,2013-05-24 12:52:00,
2013-05-24 08:02:00,58.0,55.0,30.22,NE,53,2.0,9.0,89,0.00,,,0.00,,2013-05-24 13:02:00,
2013-05-24 08:11:00,58.0,55.0,30.22,NE,53,2.0,9.0,89,0.00,,,0.00,,2013-05-24 13:11:00,
2013-05-24 08:21:00,58.0,54.0,30.22,NE,54,3.0,7.0,87,0.00,,,0.00,,2013-05-24 13:21:00,
2013-05-24 08:32:00,59.0,55.0,30.22,East,83,2.0,8.0,86,0.00,,,0.00,,2013-05-24 13:32:00,
2013-05-24 08:42:00,59.0,55.0,30.22,East,83,2.0,8.0,86,0.00,,,0.00,,2013-05-24 13:42:00,
2013-05-24 08:52:00,61.0,56.0,30.22,ENE,60,1.0,9.0,85,0.00,,,0.00,,2013-05-24 13:52:00,
2013-05-24 09:01:00,62.0,56.0,30.23,East,90,3.0,8.0,80,0.00,,,0.00,,2013-05-24 14:01:00,
2013-05-24 09:11:00,62.0,56.0,30.23,East,90,3.0,8.0,80,0.00,,,0.00,,2013-05-24 14:11:00,
2013-05-24 09:21:00,63.0,57.0,30.24,ENE,67,1.0,6.0,80,0.00,,,0.00,,2013-05-24 14:21:00,
2013-05-24 09:32:00,64.0,57.0,30.25,ENE,63,2.0,8.0,79,0.00,,,0.00,,2013-05-24 14:32:00,
2013-05-24 09:42:00,64.0,57.0,30.25,ENE,63,2.0,8.0,79,0.00,,,0.00,,2013-05-24 14:42:00,
2013-05-24 09:52:00,65.0,58.0,30.24,ENE,71,4.0,8.0,78,0.00,,,0.00,,2013-05-24 14:52:00,
2013-05-24 10:02:00,65.0,57.0,30.24,ENE,60,4.0,8.0,75,0.00,,,0.00,,2013-05-24 15:02:00,
2013-05-24 10:11:00,65.0,57.0,30.24,ENE,60,4.0,8.0,75,0.00,,,0.00,,2013-05-24 15:11:00,
2013-05-24 10:21:00,66.0,57.0,30.24,East,100,3.0,7.0,73,0.00,,,0.00,,2013-05-24 15:21:00,
2013-05-24 10:32:00,66.0,57.0,30.24,East,79,3.0,7.0,74,0.00,,,0.00,,2013-05-24 15:32:00,
2013-05-24 10:43:00,66.0,57.0,30.24,East,79,3.0,7.0,74,0.00,,,0.00,,2013-05-24 15:43:00,
2013-05-24 10:52:00,67.0,58.0,30.23,NE,37,4.0,7.0,73,0.00,,,0.00,,2013-05-24 15:52:00,
2013-05-24 11:03:00,68.0,58.0,30.23,ENE,61,2.0,7.0,71,0.00,,,0.00,,2013-05-24 16:03:00,
2013-05-24 11:12:00,68.0,58.0,30.23,ENE,61,2.0,7.0,71,0.00,,,0.00,,2013-05-24 16:12:00,
2013-05-24 11:22:00,69.0,59.0,30.23,NE,55,5.0,8.0,70,0.00,,,0.00,,2013-05-24 16:22:00,
2013-05-24 11:32:00,70.0,60.0,30.23,ENE,67,3.0,7.0,71,0.00,,,0.00,,2013-05-24 16:32:00,
2013-05-24 11:42:00,70.0,60.0,30.23,ENE,67,3.0,7.0,71,0.00,,,0.00,,2013-05-24 16:42:00,
2013-05-24 11:52:00,70.0,60.0,30.23,ESE,117,1.0,6.0,71,0.00,,,0.00,,2013-05-24 16:52:00,
2013-05-24 12:02:00,71.0,62.0,30.23,ENE,65,2.0,6.0,72,0.00,,,0.00,,2013-05-24 17:02:00,
2013-05-24 12:12:00,71.0,62.0,30.23,ENE,65,2.0,6.0,72,0.00,,,0.00,,2013-05-24 17:12:00,
2013-05-24 12:22:00,71.0,59.0,30.23,ENE,57,4.0,9.0,67,0.00,,,0.00,,2013-05-24 17:22:00,
2013-05-24 12:32:00,71.0,61.0,30.22,East,82,3.0,7.0,71,0.00,,,0.00,,2013-05-24 17:32:00,
2013-05-24 12:42:00,71.0,61.0,30.22,East,82,3.0,7.0,71,0.00,,,0.00,,2013-05-24 17:42:00,
2013-05-24 12:52:00,73.0,62.0,30.22,ENE,75,3.0,7.0,69,0.00,,,0.00,,2013-05-24 17:52:00,
2013-05-24 13:01:00,73.0,62.0,30.21,ENE,63,3.0,9.0,69,0.00,,,0.00,,2013-05-24 18:01:00,
2013-05-24 13:12:00,73.0,62.0,30.21,ENE,63,3.0,9.0,69,0.00,,,0.00,,2013-05-24 18:12:00,
2013-05-24 13:21:00,74.0,63.0,30.20,East,99,1.0,7.0,69,0.00,,,0.00,,2013-05-24 18:21:00,
2013-05-24 13:32:00,74.0,62.0,30.20,ESE,108,1.0,7.0,67,0.00,,,0.00,,2013-05-24 18:32:00,
2013-05-24 13:42:00,74.0,62.0,30.20,ESE,108,1.0,7.0,67,0.00,,,0.00,,2013-05-24 18:42:00,
2013-05-24 13:52:00,74.0,61.0,30.19,ENE,76,3.0,9.0,65,0.00,,,0.00,,2013-05-24 18:52:00,
2013-05-24 14:01:00,75.0,65.0,30.19,ENE,65,0.0,9.0,71,0.00,,,0.00,,2013-05-24 19:01:00,
2013-05-24 14:11:00,75.0,65.0,30.19,ENE,65,0.0,9.0,71,0.00,,,0.00,,2013-05-24 19:11:00,
2013-05-24 14:21:00,75.0,64.0,30.19,NE,51,2.0,8.0,69,0.00,,,0.00,,2013-05-24 19:21:00,
2013-05-24 14:32:00,76.0,62.0,30.19,East,87,3.0,7.0,63,0.00,,,0.00,,2013-05-24 19:32:00,
2013-05-24 14:41:00,76.0,62.0,30.19,East,87,3.0,7.0,63,0.00,,,0.00,,2013-05-24 19:41:00,
2013-05-24 14:52:00,77.0,66.0,30.19,ENE,65,1.0,6.0,68,0.00,,,0.00,,2013-05-24 19:52:00,
2013-05-24 15:02:00,77.0,64.0,30.18,ENE,71,1.0,6.0,64,0.00,,,0.00,,2013-05-24 20:02:00,
2013-05-24 15:11:00,77.0,64.0,30.18,ENE,71,1.0,6.0,64,0.00,,,0.00,,2013-05-24 20:11:00,
2013-05-24 15:21:00,77.0,62.0,30.18,ESE,115,1.0,7.0,60,0.00,,,0.00,,2013-05-24 20:21:00,
2013-05-24 15:32:00,77.0,63.0,30.17,ENE,58,2.0,8.0,61,0.00,,,0.00,,2013-05-24 20:32:00,
2013-05-24 15:41:00,77.0,63.0,30.17,ENE,58,2.0,8.0,61,0.00,,,0.00,,2013-05-24 20:41:00,
2013-05-24 15:52:00,78.0,64.0,30.16,ENE,67,2.0,6.0,62,0.00,,,0.00,,2013-05-24 20:52:00,
2013-05-24 16:01:00,78.0,67.0,30.16,ENE,69,0.0,5.0,69,0.00,,,0.00,,2013-05-24 21:01:00,
2013-05-24 16:11:00,78.0,67.0,30.16,ENE,69,0.0,5.0,69,0.00,,,0.00,,2013-05-24 21:11:00,
2013-05-24 16:21:00,78.0,63.0,30.15,ENE,62,0.0,6.0,61,0.00,,,0.00,,2013-05-24 21:21:00,
2013-05-24 16:32:00,77.0,65.0,30.14,ENE,78,1.0,6.0,66,0.00,,,0.00,,2013-05-24 21:32:00,
2013-05-24 16:42:00,77.0,65.0,30.14,ENE,78,1.0,6.0,66,0.00,,,0.00,,2013-05-24 21:42:00,
2013-05-24 16:53:00,76.0,64.0,30.14,ENE,65,2.0,5.0,67,0.00,,,0.00,,2013-05-24 21:53:00,
2013-05-24 17:02:00,77.0,65.0,30.13,ENE,59,1.0,5.0,66,0.00,,,0.00,,2013-05-24 22:02:00,
2013-05-24 17:12:00,77.0,65.0,30.13,ENE,59,1.0,5.0,66,0.00,,,0.00,,2013-05-24 22:12:00,
2013-05-24 17:22:00,77.0,64.0,30.12,ENE,74,1.0,5.0,65,0.00,,,0.00,,2013-05-24 22:22:00,
2013-05-24 17:33:00,77.0,64.0,30.12,East,83,1.0,5.0,65,0.00,,,0.00,,2013-05-24 22:33:00,
2013-05-24 17:42:00,77.0,64.0,30.12,East,83,1.0,5.0,65,0.00,,,0.00,,2013-05-24 22:42:00,
2013-05-24 17:52:00,75.0,64.0,30.12,ENE,74,0.0,5.0,69,0.00,,,0.00,,2013-05-24 22:52:00,
2013-05-24 18:02:00,75.0,65.0,30.12,ENE,73,0.0,2.0,70,0.00,,,0.00,,2013-05-24 23:02:00,
2013-05-24 18:11:00,75.0,65.0,30.12,ENE,73,0.0,2.0,70,0.00,,,0.00,,2013-05-24 23:11:00,
2013-05-24 18:22:00,75.0,64.0,30.12,ENE,78,0.0,4.0,69,0.00,,,0.00,,2013-05-24 23:22:00,
2013-05-24 18:32:00,75.0,65.0,30.13,ENE,62,0.0,0.0,72,0.00,,,0.00,,2013-05-24 23:32:00,
2013-05-24 18:42:00,75.0,65.0,30.13,ENE,62,0.0,0.0,72,0.00,,,0.00,,2013-05-24 23:42:00,
2013-05-24 18:52:00,75.0,65.0,30.12,SSW,200,0.0,1.0,70,0.00,,,0.00,,2013-05-24 23:52:00,
2013-05-24 19:01:00,75.0,64.0,30.12,NW,322,0.0,1.0,68,0.00,,,0.00,,2013-05-25 00:01:00,
2013-05-24 19:11:00,75.0,64.0,30.12,NW,322,0.0,1.0,68,0.00,,,0.00,,2013-05-25 00:11:00,
2013-05-24 19:21:00,74.0,63.0,30.12,West,273,0.0,5.0,68,0.00,,,0.00,,2013-05-25 00:21:00,
2013-05-24 19:32:00,73.0,62.0,30.12,ENE,58,0.0,2.0,69,0.00,,,0.00,,2013-05-25 00:32:00,
2013-05-24 19:41:00,73.0,62.0,30.12,ENE,58,0.0,2.0,69,0.00,,,0.00,,2013-05-25 00:41:00,
2013-05-24 19:52:00,72.0,62.0,30.12,ENE,67,0.0,1.0,70,0.00,,,0.00,,2013-05-25 00:52:00,
2013-05-24 20:01:00,71.0,63.0,30.12,NE,42,0.0,0.0,77,0.00,,,0.00,,2013-05-25 01:01:00,
2013-05-24 20:11:00,71.0,63.0,30.12,NE,42,0.0,0.0,77,0.00,,,0.00,,2013-05-25 01:11:00,
2013-05-24 20:22:00,69.0,61.0,30.13,NE,42,0.0,1.0,76,0.00,,,0.00,,2013-05-25 01:22:00,
2013-05-24 20:32:00,68.0,61.0,30.13,East,82,0.0,2.0,79,0.00,,,0.00,,2013-05-25 01:32:00,
2013-05-24 20:42:00,68.0,61.0,30.13,East,82,0.0,2.0,79,0.00,,,0.00,,2013-05-25 01:42:00,
2013-05-24 20:52:00,67.0,62.0,30.13,East,82,0.0,0.0,83,0.00,,,0.00,,2013-05-25 01:52:00,
2013-05-24 21:01:00,67.0,62.0,30.13,East,82,0.0,0.0,83,0.00,,,0.00,,2013-05-25 02:01:00,
2013-05-24 21:11:00,67.0,62.0,30.13,East,82,0.0,0.0,83,0.00,,,0.00,,2013-05-25 02:11:00,
2013-05-24 21:21:00,65.0,61.0,30.13,East,82,0.0,0.0,86,0.00,,,0.00,,2013-05-25 02:21:00,
2013-05-24 21:31:00,64.0,60.0,30.14,ENE,73,0.0,0.0,86,0.00,,,0.00,,2013-05-25 02:31:00,
2013-05-24 21:42:00,64.0,60.0,30.14,ENE,73,0.0,0.0,86,0.00,,,0.00,,2013-05-25 02:42:00,
2013-05-24 21:52:00,63.0,59.0,30.15,ENE,73,0.0,0.0,87,0.00,,,0.00,,2013-05-25 02:52:00,
2013-05-24 22:01:00,63.0,59.0,30.15,ENE,73,0.0,0.0,88,0.00,,,0.00,,2013-05-25 03:01:00,
2013-05-24 22:11:00,63.0,59.0,30.15,ENE,73,0.0,0.0,88,0.00,,,0.00,,2013-05-25 03:11:00,
2013-05-24 22:21:00,62.0,59.0,30.16,ENE,73,0.0,0.0,89,0.00,,,0.00,,2013-05-25 03:21:00,
2013-05-24 22:32:00,62.0,59.0,30.16,ENE,73,0.0,1.0,89,0.00,,,0.00,,2013-05-25 03:32:00,
2013-05-24 22:43:00,62.0,59.0,30.16,ENE,73,0.0,1.0,89,0.00,,,0.00,,2013-05-25 03:43:00,
2013-05-24 22:53:00,61.0,58.0,30.16,ENE,73,0.0,1.0,89,0.00,,,0.00,,2013-05-25 03:53:00,
2013-05-24 23:02:00,61.0,57.0,30.16,East,81,0.0,2.0,87,0.00,,,0.00,,2013-05-25 04:02:00,
2013-05-24 23:12:00,61.0,57.0,30.16,East,81,0.0,2.0,87,0.00,,,0.00,,2013-05-25 04:12:00,
2013-05-24 23:23:00,62.0,57.0,30.16,ENE,69,0.0,2.0,84,0.00,,,0.00,,2013-05-25 04:23:00,
2013-05-24 23:33:00,62.0,56.0,30.16,ENE,71,0.0,1.0,80,0.00,,,0.00,,2013-05-25 04:33:00,
2013-05-24 23:43:00,62.0,56.0,30.16,ENE,71,0.0,1.0,80,0.00,,,0.00,,2013-05-25 04:43:00,
2013-05-24 23:53:00,62.0,55.0,30.16,ENE,70,0.0,2.0,77,0.00,,,0.00,,2013-05-25 04:53:00,